Pagina principale
METAR-TAF:

METAR-TAF

Aeroporti :

Aeroporto di Guidonia

Guidonia Montecelio, Italia

latitudine: 42-00N, longitudine: 012-44E, altezza: 88 m

Osservazione

Il bollettino è stato emesso 42 minuti fa, alle 13:55 UTC
Vento 7 kt da sud
Temperature 13°C
Umidità 72%
Pressione 1013 hPa
Visibilità 10 km o più
Nubi sparse ad un'altezza di 3000 ft
Nubi sparse ad un'altezza di 4000 ft

METAR: LIRG 211355Z 19007KT 9999 SCT030 SCT040 13/08 Q1013 RMK BKN MON NE CLD CIME NC VIS MIN 9999 BLU

Ora: 15:37 (14:37 UTC)

Previsione

Il bollettino è stato emesso 37 minuti fa, alle 14:00 UTC
Previsione valida dal 21 alle 15 UTC al 21 alle 24 UTC
Vento 8 kt da sud/sud-est
Visibilità 10 km o più
Nubi sparse ad un'altezza di 2500 ft
Nubi sparse ad un'altezza di 4000 ft
Temporaneamente
dal 21 alle 15 UTC al 21 alle 18 UTC
Visibilità: 5000 m
Nuvoloso ad un'altezza di 3000 ft
pioggia, foschia

TAF: LIRG 211400Z 2115/2124 16008KT 9999 SCT025 SCT040 TEMPO 2115/2118 5000 RA BR BKN030

Osservazioni e previsioni meteorologiche di più di 4000 aeroporti (messaggi METAR e TAF).

Le stazioni disponibili sono rappresentate dai dischi gialli e rossi sulla carta.

Puntare il mouse per vedere il nome della stazione.

Clicca sopra per visualizzare le osservazioni e previsioni meteorologiche.

Per cambiare la mappa : fare clic sui pulsanti verdi con una croce nera per ingrandire, il pulsante verde con un trattino per diminuire, o sulla freccia verde per le mappe adiacenti.


METAR-TAF: